Time;durP1;ratioP1;P1;durP2;ratioP2;P2;SDS_P1;SDS_P2;PMS_P1;PMS_P2;Temp;Humidity;BMP_temperature;BMP_pressure;BME280_temperature;BME280_humidity;BME280_pressure;Samples;Min_cycle;Max_cycle;Signal;HPM_P1;HPM_P2
2023/08/23 00:01:34;;;;;;;2.63;2.00;;;;;;;16.67;95.64;102085.72;5061547;28;20040;-73
2023/08/23 00:03:59;;;;;;;3.28;2.33;;;;;;;16.67;95.72;102087.53;5060177;28;20032;-73
2023/08/23 00:06:24;;;;;;;2.22;2.03;;;;;;;16.66;95.85;102080.50;5059036;28;20037;-73
2023/08/23 00:08:50;;;;;;;2.20;2.10;;;;;;;16.65;96.06;102082.31;5060142;28;20029;-73
2023/08/23 00:11:15;;;;;;;3.53;2.30;;;;;;;16.64;96.20;102067.34;5059920;28;20044;-73
2023/08/23 00:13:41;;;;;;;2.58;1.92;;;;;;;16.65;96.03;102076.16;5058711;28;20057;-73
2023/08/23 00:16:07;;;;;;;2.50;1.92;;;;;;;16.63;96.09;102070.94;5059501;28;20033;-73
2023/08/23 00:18:32;;;;;;;1.92;1.83;;;;;;;16.63;96.15;102065.66;5059065;28;20366;-73
2023/08/23 00:20:58;;;;;;;3.33;2.00;;;;;;;16.63;96.15;102065.66;5059536;28;20348;-73
2023/08/23 00:23:23;;;;;;;2.20;1.65;;;;;;;16.63;96.06;102063.00;5058881;28;20029;-73
2023/08/23 00:25:48;;;;;;;1.85;1.75;;;;;;;16.62;96.00;102055.97;5059323;28;20037;-73
2023/08/23 00:28:15;;;;;;;2.05;1.80;;;;;;;16.61;96.04;102062.22;5059295;28;20040;-73
2023/08/23 00:30:51;;;;;;;2.53;2.33;;;;;;;16.60;96.28;102062.28;5058539;28;20044;-73
2023/08/23 00:33:16;;;;;;;3.13;2.78;;;;;;;16.58;96.25;102062.34;5058650;28;20045;-73
2023/08/23 00:35:42;;;;;;;2.05;1.95;;;;;;;16.57;96.47;102058.00;5058934;28;20037;-73
2023/08/23 00:38:07;;;;;;;4.30;2.35;;;;;;;16.56;96.63;102052.78;5059071;28;20045;-73
2023/08/23 00:40:32;;;;;;;2.85;2.38;;;;;;;16.55;96.98;102048.41;5058495;28;20255;-73
2023/08/23 00:42:58;;;;;;;2.03;1.83;;;;;;;16.53;97.02;102056.41;5059242;28;20311;-73
2023/08/23 00:45:23;;;;;;;1.85;1.75;;;;;;;16.53;97.01;102053.78;5058654;28;20185;-73
2023/08/23 00:47:49;;;;;;;1.95;1.85;;;;;;;16.52;97.22;102046.78;5059022;28;20045;-73
2023/08/23 00:50:15;;;;;;;2.00;1.90;;;;;;;16.51;97.30;102048.56;5059261;28;20362;-73
2023/08/23 00:52:41;;;;;;;2.10;1.90;;;;;;;16.50;97.30;102054.78;5058622;28;20358;-73
2023/08/23 00:55:07;;;;;;;2.17;2.08;;;;;;;16.50;97.23;102046.00;5059143;28;20409;-73
2023/08/23 00:57:32;;;;;;;3.50;2.03;;;;;;;16.49;97.18;102047.78;5058915;28;20060;-73
2023/08/23 00:59:58;;;;;;;2.72;1.85;;;;;;;16.48;97.35;102054.00;5059142;28;20302;-73
2023/08/23 01:02:24;;;;;;;2.40;1.95;;;;;;;16.47;97.73;102043.50;5062980;28;20025;-73
2023/08/23 01:04:49;;;;;;;2.38;1.70;;;;;;;16.46;97.50;102049.69;5058818;28;20336;-73
2023/08/23 01:07:17;;;;;;;2.10;2.00;;;;;;;16.44;97.65;102049.75;5058388;28;20116;-73
2023/08/23 01:10:10;;;;;;;1.80;1.70;;;;;;;16.44;97.73;102052.41;5058577;28;20025;-73
2023/08/23 01:12:42;;;;;;;2.42;1.98;;;;;;;16.41;97.75;102052.56;5054047;28;20060;-73
2023/08/23 01:15:11;;;;;;;1.92;1.83;;;;;;;16.41;97.85;102049.94;5050683;28;20075;-73
2023/08/23 01:17:41;;;;;;;2.03;1.92;;;;;;;16.41;97.83;102056.97;5046345;28;20039;-73
2023/08/23 01:20:09;;;;;;;2.70;2.13;;;;;;;16.40;97.88;102050.00;5051894;28;20033;-73
2023/08/23 01:22:38;;;;;;;1.70;1.60;;;;;;;16.40;98.22;102042.06;5052250;28;20036;-73
2023/08/23 01:25:04;;;;;;;2.30;2.20;;;;;;;16.39;97.88;102046.50;5058512;28;20356;-73
2023/08/23 01:27:32;;;;;;;2.45;2.30;;;;;;;16.38;97.87;102044.78;5040160;28;20024;-73
2023/08/23 01:29:58;;;;;;;2.40;2.30;;;;;;;16.38;97.82;102046.56;5054567;28;20250;-72
2023/08/23 01:32:45;;;;;;;2.85;2.50;;;;;;;16.37;98.04;102039.56;5057228;28;20099;-73
2023/08/23 01:35:17;;;;;;;2.08;1.98;;;;;;;16.37;98.21;102047.47;5057479;28;20048;-73
2023/08/23 01:37:47;;;;;;;4.13;2.20;;;;;;;16.34;98.41;102040.56;5055248;28;20397;-73
2023/08/23 01:40:14;;;;;;;4.60;2.15;;;;;;;16.34;98.42;102045.00;5059006;28;20239;-73
2023/08/23 01:42:41;;;;;;;2.15;1.95;;;;;;;16.33;98.49;102032.69;5044024;28;20024;-73
2023/08/23 01:45:07;;;;;;;1.90;1.80;;;;;;;16.33;98.55;102024.75;5061970;28;20036;-73
2023/08/23 01:47:33;;;;;;;2.53;2.20;;;;;;;16.32;98.59;102031.84;5061689;28;20045;-73
2023/08/23 01:49:58;;;;;;;3.38;2.10;;;;;;;16.31;98.76;102024.84;5062673;28;20235;-73
2023/08/23 01:52:23;;;;;;;3.55;2.10;;;;;;;16.30;98.61;102031.91;5061489;28;20383;-73
2023/08/23 01:54:49;;;;;;;2.00;1.90;;;;;;;16.31;98.74;102027.47;5061938;28;20099;-73
2023/08/23 01:57:14;;;;;;;2.63;2.08;;;;;;;16.30;98.83;102031.06;5062023;28;20072;-73
2023/08/23 01:59:40;;;;;;;1.83;1.73;;;;;;;16.29;98.89;102024.03;5061487;28;20029;-73
2023/08/23 02:02:05;;;;;;;2.33;2.13;;;;;;;16.28;98.77;102022.31;5062113;28;20747;-73
2023/08/23 02:04:30;;;;;;;2.20;2.10;;;;;;;16.27;98.77;102025.91;5061588;28;20075;-73
2023/08/23 02:06:56;;;;;;;2.45;2.00;;;;;;;16.27;99.00;102024.13;5043731;28;20044;-73
2023/08/23 02:09:21;;;;;;;2.97;2.42;;;;;;;16.28;98.93;102027.59;5061069;28;20056;-73
2023/08/23 02:11:46;;;;;;;2.45;2.30;;;;;;;16.27;99.02;102023.25;5061697;28;20267;-73
2023/08/23 02:14:15;;;;;;;2.90;2.55;;;;;;;16.26;99.06;102033.00;5061385;28;20047;-75
2023/08/23 02:16:40;;;;;;;2.55;2.10;;;;;;;16.26;98.99;102025.06;5055606;28;20336;-74
2023/08/23 02:19:05;;;;;;;4.10;1.92;;;;;;;16.24;99.01;102021.59;5056465;28;20086;-74
2023/08/23 02:21:31;;;;;;;2.25;2.05;;;;;;;16.23;99.34;102025.19;5055502;28;20037;-73
2023/08/23 02:23:56;;;;;;;2.42;2.22;;;;;;;16.23;99.35;102032.28;5056534;28;20347;-73
2023/08/23 02:26:21;;;;;;;4.65;2.40;;;;;;;16.21;99.30;102031.44;5055561;28;20040;-73
2023/08/23 02:28:47;;;;;;;2.20;2.00;;;;;;;16.21;99.39;102023.53;5056341;28;20316;-73
2023/08/23 02:31:12;;;;;;;2.42;2.22;;;;;;;16.21;99.39;102023.53;5055923;28;20064;-73
2023/08/23 02:33:38;;;;;;;2.80;2.28;;;;;;;16.19;99.33;102020.97;5062432;28;20102;-73
2023/08/23 02:36:03;;;;;;;3.28;2.38;;;;;;;16.19;99.54;102012.16;5049592;28;20060;-73
2023/08/23 02:38:28;;;;;;;2.35;2.15;;;;;;;16.17;99.61;102006.97;5053930;28;20037;-73
2023/08/23 02:40:55;;;;;;;2.70;2.50;;;;;;;16.17;99.78;101999.06;5052495;28;20040;-73
2023/08/23 02:43:21;;;;;;;2.60;2.40;;;;;;;16.17;99.86;102001.69;5052613;28;20084;-73
2023/08/23 02:45:46;;;;;;;2.47;2.28;;;;;;;16.16;99.75;102004.41;5058480;28;20045;-73
2023/08/23 02:48:11;;;;;;;2.20;2.10;;;;;;;16.16;99.94;101996.47;5043258;28;20025;-73
2023/08/23 02:50:37;;;;;;;2.30;2.10;;;;;;;16.15;99.68;101995.59;5060960;28;20033;-73
2023/08/23 02:53:02;;;;;;;2.22;2.05;;;;;;;16.15;99.74;102000.88;5059218;28;20294;-73
2023/08/23 02:55:28;;;;;;;2.55;2.33;;;;;;;16.15;100.00;102006.16;5060355;28;20239;-73
2023/08/23 02:57:53;;;;;;;2.60;2.25;;;;;;;16.15;100.00;102002.66;5060147;28;20305;-73
2023/08/23 03:00:18;;;;;;;2.83;2.63;;;;;;;16.15;100.00;102005.31;5060754;28;20251;-73
2023/08/23 03:02:44;;;;;;;3.55;2.85;;;;;;;16.15;100.00;101997.38;5060103;28;20036;-73
2023/08/23 03:05:09;;;;;;;3.33;3.03;;;;;;;16.15;100.00;101995.59;5060947;28;20037;-73
2023/08/23 03:07:35;;;;;;;4.40;2.80;;;;;;;16.15;100.00;101995.59;5059698;28;20033;-73
2023/08/23 03:10:00;;;;;;;3.35;3.05;;;;;;;16.15;100.00;101992.09;5060135;28;20044;-73
2023/08/23 03:12:25;;;;;;;4.20;2.95;;;;;;;16.16;100.00;102005.25;5059118;28;20028;-72
2023/08/23 03:14:51;;;;;;;2.83;2.63;;;;;;;16.15;100.00;102007.97;5060199;28;20401;-73
2023/08/23 03:17:16;;;;;;;3.47;3.00;;;;;;;16.16;100.00;102007.91;5059510;28;20036;-73
2023/08/23 03:19:41;;;;;;;4.00;3.70;;;;;;;16.16;100.00;101999.97;5059949;28;20332;-73
2023/08/23 03:22:07;;;;;;;6.22;3.90;;;;;;;16.16;100.00;102001.75;5059391;28;20037;-73
2023/08/23 03:24:32;;;;;;;4.45;3.90;;;;;;;16.17;100.00;102014.91;5059209;28;20033;-73
2023/08/23 03:26:58;;;;;;;4.70;4.25;;;;;;;16.17;100.00;102006.09;5059017;28;20375;-73
2023/08/23 03:29:23;;;;;;;4.22;3.88;;;;;;;16.16;100.00;102007.91;5059527;28;20093;-73
2023/08/23 03:31:49;;;;;;;5.47;4.05;;;;;;;16.16;100.00;102007.03;5059487;28;20116;-73
2023/08/23 03:34:15;;;;;;;4.63;4.22;;;;;;;16.16;100.00;102009.69;5060087;28;20037;-73
2023/08/23 03:36:40;;;;;;;5.35;4.88;;;;;;;16.16;100.00;102009.69;5063169;28;20227;-73
2023/08/23 03:39:06;;;;;;;5.00;4.60;;;;;;;16.15;100.00;102006.16;5059618;28;20071;-73
2023/08/23 03:41:31;;;;;;;7.60;5.63;;;;;;;16.16;100.00;102007.03;5058855;28;20056;-73
2023/08/23 03:43:56;;;;;;;5.78;5.28;;;;;;;16.16;100.00;102005.25;5077125;28;20111;-73
2023/08/23 03:46:23;;;;;;;6.70;5.78;;;;;;;16.16;100.00;102007.91;5063935;28;20236;-73
2023/08/23 03:48:49;;;;;;;8.48;5.50;;;;;;;16.16;100.00;102007.91;5055615;28;20029;-73
2023/08/23 03:51:14;;;;;;;6.15;5.57;;;;;;;16.17;100.00;102008.75;5067691;28;20028;-73
2023/08/23 03:53:39;;;;;;;6.80;5.72;;;;;;;16.16;100.00;102012.34;5041540;28;20024;-73
2023/08/23 03:56:05;;;;;;;5.78;5.28;;;;;;;16.16;100.00;102010.53;5042123;28;20031;-73
2023/08/23 03:58:31;;;;;;;5.90;5.40;;;;;;;16.16;100.00;102013.19;5058926;28;20079;-73
2023/08/23 04:00:56;;;;;;;7.97;4.57;;;;;;;16.15;100.00;102006.16;5059035;28;20238;-73
2023/08/23 04:03:24;;;;;;;5.05;4.47;;;;;;;16.15;100.00;102011.44;5041842;28;20049;-72
2023/08/23 04:05:50;;;;;;;4.60;4.15;;;;;;;16.14;100.00;102008.91;5059750;28;20359;-72
2023/08/23 04:08:16;;;;;;;5.68;5.18;;;;;;;16.14;100.00;102001.81;5058938;28;20029;-72
2023/08/23 04:10:47;;;;;;;6.10;5.43;;;;;;;16.14;100.00;101998.34;5041933;28;20076;-73
2023/08/23 04:13:13;;;;;;;6.05;5.45;;;;;;;16.13;100.00;102000.09;5059104;28;20040;-72
2023/08/23 04:15:41;;;;;;;6.25;5.75;;;;;;;16.12;100.00;102001.88;5059740;28;20041;-73
2023/08/23 04:18:06;;;;;;;6.03;5.47;;;;;;;16.13;100.00;102002.75;5059419;28;20262;-73
2023/08/23 04:20:32;;;;;;;6.90;6.20;;;;;;;16.12;100.00;101998.41;5059535;28;20036;-73
2023/08/23 04:22:57;;;;;;;6.32;5.38;;;;;;;16.11;100.00;101997.53;5059475;28;20037;-72
2023/08/23 04:25:22;;;;;;;7.65;6.40;;;;;;;16.10;100.00;101993.19;5059168;28;20082;-73
2023/08/23 04:27:48;;;;;;;6.25;5.63;;;;;;;16.12;100.00;101991.31;5059610;28;20352;-73
2023/08/23 04:30:13;;;;;;;8.90;7.38;;;;;;;16.11;100.00;101988.75;5059412;28;20052;-72
2023/08/23 04:32:39;;;;;;;8.27;7.32;;;;;;;16.12;100.00;101993.97;5059483;28;20104;-73
2023/08/23 04:35:04;;;;;;;9.48;7.35;;;;;;;16.13;100.00;101989.53;5059410;28;20101;-72
2023/08/23 04:37:30;;;;;;;9.75;7.75;;;;;;;16.12;100.00;101993.97;5058446;28;20041;-72
2023/08/23 04:39:55;;;;;;;10.02;7.25;;;;;;;16.13;100.00;101992.16;5059326;28;20040;-73
2023/08/23 04:42:21;;;;;;;9.05;7.47;;;;;;;16.14;100.00;101988.63;5058908;28;20033;-73
2023/08/23 04:44:46;;;;;;;9.45;8.43;;;;;;;16.13;100.00;101997.44;5067290;28;20041;-73
2023/08/23 04:47:11;;;;;;;14.50;8.48;;;;;;;16.13;100.00;101994.81;5040895;28;20044;-73
2023/08/23 04:49:37;;;;;;;9.63;7.53;;;;;;;16.13;100.00;101992.16;5041140;28;20045;-73
2023/08/23 04:52:02;;;;;;;12.80;8.13;;;;;;;16.13;100.00;101994.81;5029467;28;20025;-72
2023/08/23 04:54:27;;;;;;;10.68;7.85;;;;;;;16.14;100.00;101985.97;5075834;28;20051;-73
2023/08/23 04:56:53;;;;;;;12.02;7.85;;;;;;;16.15;100.00;101992.09;5076508;28;20101;-73
2023/08/23 04:59:18;;;;;;;12.98;8.13;;;;;;;16.15;100.00;101992.09;5059511;28;20036;-73
2023/08/23 05:01:44;;;;;;;12.50;8.27;;;;;;;16.15;100.00;101995.59;5059647;28;20032;-73
2023/08/23 05:04:09;;;;;;;9.20;7.78;;;;;;;16.16;100.00;101999.13;5059313;28;20049;-73
2023/08/23 05:06:35;;;;;;;12.88;8.45;;;;;;;16.16;100.00;101997.31;5059339;28;20033;-73
2023/08/23 05:09:01;;;;;;;10.27;8.77;;;;;;;16.16;100.00;102001.75;5062299;28;20054;-73
2023/08/23 05:11:26;;;;;;;12.10;8.35;;;;;;;16.17;100.00;101988.47;5082058;28;20060;-73
2023/08/23 05:13:52;;;;;;;11.75;8.52;;;;;;;16.17;100.00;101999.06;5065323;28;20039;-73
2023/08/23 05:16:17;;;;;;;11.27;8.60;;;;;;;16.18;100.00;101986.69;5062957;28;20243;-73
2023/08/23 05:18:42;;;;;;;17.48;10.00;;;;;;;16.19;100.00;101988.38;5063085;28;20036;-73
2023/08/23 05:21:09;;;;;;;16.95;10.45;;;;;;;16.19;100.00;101991.91;5053337;28;20082;-73
2023/08/23 05:23:34;;;;;;;15.52;10.25;;;;;;;16.20;100.00;101988.31;5060382;28;20025;-73
2023/08/23 05:26:01;;;;;;;13.05;8.98;;;;;;;16.22;100.00;101990.91;5061983;28;20033;-73
2023/08/23 05:28:26;;;;;;;11.98;9.65;;;;;;;16.23;100.00;101988.19;5070467;28;20037;-73
2023/08/23 05:30:51;;;;;;;12.98;10.32;;;;;;;16.24;100.00;101991.69;5076361;28;20060;-73
2023/08/23 05:33:17;;;;;;;14.55;9.77;;;;;;;16.25;100.00;101996.06;5064545;28;20398;-73
2023/08/23 05:35:43;;;;;;;14.55;9.70;;;;;;;16.26;100.00;101997.75;5068418;28;20043;-73
2023/08/23 05:38:11;;;;;;;13.90;9.90;;;;;;;16.27;100.00;101995.03;5050406;28;20033;-72
2023/08/23 05:40:38;;;;;;;11.70;8.82;;;;;;;16.28;100.00;101991.47;5060488;28;20039;-73
2023/08/23 05:43:03;;;;;;;11.15;8.50;;;;;;;16.30;100.00;101988.78;5048409;28;20037;-73
2023/08/23 05:45:29;;;;;;;12.30;8.95;;;;;;;16.31;100.00;101987.81;5059524;28;20488;-72
2023/08/23 05:47:55;;;;;;;9.02;7.57;;;;;;;16.31;100.00;101986.03;5051686;28;20041;-72
2023/08/23 05:50:21;;;;;;;9.80;8.18;;;;;;;16.34;100.00;101998.25;5043834;28;20366;-73
2023/08/23 05:52:47;;;;;;;15.75;9.90;;;;;;;16.36;100.00;102004.34;5066843;28;20036;-73
2023/08/23 05:55:13;;;;;;;13.73;9.80;;;;;;;16.38;100.00;102006.91;5081902;28;20043;-73
2023/08/23 05:57:38;;;;;;;11.35;8.30;;;;;;;16.39;100.00;102006.84;5072358;28;20067;-73
2023/08/23 06:00:05;;;;;;;16.75;10.02;;;;;;;16.42;100.00;102005.84;5046694;28;20021;-73
2023/08/23 06:02:30;;;;;;;12.18;9.35;;;;;;;16.44;100.00;102014.53;5078208;28;20087;-73
2023/08/23 06:04:55;;;;;;;17.00;10.77;;;;;;;16.46;100.00;102015.31;5052537;28;20409;-73
2023/08/23 06:07:21;;;;;;;22.33;12.40;;;;;;;16.48;100.00;102022.28;5043001;28;20040;-73
2023/08/23 06:09:46;;;;;;;31.20;15.55;;;;;;;16.50;100.00;102024.84;5061398;28;20040;-73
2023/08/23 06:12:12;;;;;;;17.52;10.82;;;;;;;16.53;100.00;102027.34;5060721;28;20345;-73
2023/08/23 06:14:37;;;;;;;33.92;15.32;;;;;;;16.54;100.00;102026.41;5060834;28;20083;-73
2023/08/23 06:17:02;;;;;;;29.38;15.80;;;;;;;16.58;100.00;102025.34;5066216;28;20036;-73
2023/08/23 06:19:28;;;;;;;25.30;14.73;;;;;;;16.60;100.00;102028.75;5074920;28;20605;-73
2023/08/23 06:21:53;;;;;;;35.35;17.92;;;;;;;16.62;100.00;102026.91;5081234;28;20036;-73
2023/08/23 06:24:19;;;;;;;31.88;16.90;;;;;;;16.65;100.00;102029.41;5064070;28;20045;-73
2023/08/23 06:26:46;;;;;;;30.52;15.95;;;;;;;16.67;100.00;102037.28;5060948;28;20044;-73
2023/08/23 06:29:12;;;;;;;29.77;16.52;;;;;;;16.68;100.00;102031.03;5060781;28;20033;-73
2023/08/23 06:31:37;;;;;;;32.08;17.02;;;;;;;16.72;100.00;102039.69;5062078;28;20472;-73
2023/08/23 06:34:03;;;;;;;23.55;15.57;;;;;;;16.75;100.00;102039.53;5065226;28;20344;-73
2023/08/23 06:36:28;;;;;;;32.88;16.40;;;;;;;16.76;100.00;102030.69;5065566;28;20281;-73
2023/08/23 06:38:54;;;;;;;27.15;15.48;;;;;;;16.78;100.00;102037.63;5071413;28;20075;-73
2023/08/23 06:41:19;;;;;;;34.28;18.95;;;;;;;16.81;100.00;102034.81;5061629;28;20040;-73
2023/08/23 06:43:46;;;;;;;32.88;17.52;;;;;;;16.82;100.00;102033.88;5058988;28;20362;-73
2023/08/23 06:46:12;;;;;;;35.60;17.23;;;;;;;16.83;100.00;102033.00;5067939;28;20511;-73
2023/08/23 06:48:37;;;;;;;33.72;17.80;;;;;;;16.85;100.00;102039.06;5065201;28;20073;-72
2023/08/23 06:51:03;;;;;;;34.15;18.88;;;;;;;16.88;100.00;102035.41;5060629;28;20048;-73
2023/08/23 06:53:29;;;;;;;34.85;19.75;;;;;;;16.89;100.00;102040.63;5062839;28;20037;-73
2023/08/23 06:55:55;;;;;;;29.38;17.10;;;;;;;16.93;100.00;102037.84;5061320;28;20036;-73
2023/08/23 06:58:20;;;;;;;33.58;18.52;;;;;;;16.95;100.00;102046.56;5059704;28;20033;-73
2023/08/23 07:00:46;;;;;;;30.33;18.15;;;;;;;16.96;100.00;102050.94;5058590;28;20273;-73
2023/08/23 07:03:11;;;;;;;35.55;20.42;;;;;;;16.97;100.00;102049.97;5060214;28;20153;-72
2023/08/23 07:05:37;;;;;;;36.95;21.55;;;;;;;17.00;100.00;102053.34;5060799;28;20036;-73
2023/08/23 07:08:03;;;;;;;48.47;24.10;;;;;;;17.01;100.00;102047.13;5059885;28;20097;-73
2023/08/23 07:10:29;;;;;;;38.05;22.15;;;;;;;17.04;100.00;102044.31;5057925;28;20036;-73
2023/08/23 07:12:55;;;;;;;38.28;23.35;;;;;;;17.06;100.00;102037.19;5059490;28;20354;-73
2023/08/23 07:15:21;;;;;;;36.78;23.20;;;;;;;17.10;100.00;102042.31;5056023;28;20273;-73
2023/08/23 07:17:46;;;;;;;35.72;22.27;;;;;;;17.11;100.00;102044.88;5037919;28;20068;-73
2023/08/23 07:20:13;;;;;;;37.78;22.90;;;;;;;17.13;100.00;102050.94;5063615;28;20248;-72
2023/08/23 07:22:39;;;;;;;34.53;21.58;;;;;;;17.17;100.00;102056.94;5059390;28;20180;-73
2023/08/23 07:25:05;;;;;;;34.47;21.48;;;;;;;17.18;100.00;102056.88;5060008;28;20052;-73
2023/08/23 07:27:30;;;;;;;37.70;23.40;;;;;;;17.22;100.00;102068.19;5059805;28;20038;-73
2023/08/23 07:29:56;;;;;;;39.58;23.23;;;;;;;17.24;100.00;102064.50;5060899;28;20029;-73
2023/08/23 07:32:22;;;;;;;37.38;22.73;;;;;;;17.27;100.00;102068.81;5056107;28;20109;-72
2023/08/23 07:34:47;;;;;;;32.55;20.02;;;;;;;17.29;100.00;102060.81;5048761;28;20041;-72
2023/08/23 07:37:12;;;;;;;36.17;23.55;;;;;;;17.32;100.00;102066.81;5056352;28;20101;-72
2023/08/23 07:39:38;;;;;;;37.03;22.40;;;;;;;17.32;100.00;102069.44;5069286;28;20059;-73
2023/08/23 07:42:03;;;;;;;31.60;20.40;;;;;;;17.35;100.00;102065.78;5059468;28;20037;-73
2023/08/23 07:44:29;;;;;;;35.85;23.40;;;;;;;17.37;100.00;102071.84;5051953;28;20055;-73
2023/08/23 07:46:54;;;;;;;37.53;23.25;;;;;;;17.40;100.00;102075.19;5057744;28;20032;-73
2023/08/23 07:49:19;;;;;;;43.45;25.95;;;;;;;17.43;100.00;102071.56;5065845;28;20035;-73
2023/08/23 07:51:45;;;;;;;48.00;27.65;;;;;;;17.45;100.00;102067.88;5068422;28;20190;-73
2023/08/23 07:54:11;;;;;;;44.70;24.17;;;;;;;17.49;100.00;102067.75;5062294;28;20227;-73
2023/08/23 07:56:37;;;;;;;36.35;22.85;;;;;;;17.51;100.00;102071.16;5058759;28;20045;-73
2023/08/23 07:59:02;;;;;;;33.58;21.60;;;;;;;17.53;100.00;102074.59;5063012;28;20080;-73
2023/08/23 08:01:27;;;;;;;46.88;26.10;;;;;;;17.56;100.00;102067.34;5067836;28;20040;-73
2023/08/23 08:03:53;;;;;;;44.80;25.42;;;;;;;17.60;100.00;102074.19;5059059;28;20064;-72
2023/08/23 08:06:18;;;;;;;40.30;24.23;;;;;;;17.64;100.00;102081.09;5065410;28;20227;-72
2023/08/23 08:08:44;;;;;;;44.90;25.83;;;;;;;17.69;100.00;102087.94;5062155;28;20064;-73
2023/08/23 08:11:11;;;;;;;43.42;25.83;;;;;;;17.72;100.00;102088.63;5048503;28;20024;-73
2023/08/23 08:13:37;;;;;;;52.33;26.95;;;;;;;17.76;100.00;102084.88;5068631;28;20028;-73
2023/08/23 08:16:07;;;;;;;42.40;24.70;;;;;;;17.78;100.00;102085.66;5070383;28;20055;-72
2023/08/23 08:18:32;;;;;;;43.42;24.65;;;;;;;17.81;100.00;102088.16;5060978;28;20028;-73
2023/08/23 08:20:59;;;;;;;36.85;23.10;;;;;;;17.83;100.00;102091.59;5061618;28;20051;-73
2023/08/23 08:23:25;;;;;;;45.00;26.25;;;;;;;17.86;100.00;102087.94;5037128;28;20048;-73
2023/08/23 08:25:50;;;;;;;37.55;22.60;;;;;;;17.89;100.00;102086.94;5047877;28;20030;-73
2023/08/23 08:28:16;;;;;;;34.50;22.52;;;;;;;17.91;100.00;102077.09;5048509;28;20041;-73
2023/08/23 08:30:41;;;;;;;36.03;23.60;;;;;;;17.93;100.00;102078.72;5058680;28;20044;-73
2023/08/23 08:33:07;;;;;;;38.83;23.05;;;;;;;17.96;100.00;102081.22;5058515;28;20037;-73
2023/08/23 08:35:32;;;;;;;42.90;25.70;;;;;;;17.98;100.00;102074.06;5056880;28;20096;-73
2023/08/23 08:37:57;;;;;;;44.75;25.55;;;;;;;18.02;100.00;102072.09;5064334;28;20028;-72
2023/08/23 08:40:23;;;;;;;36.00;25.42;;;;;;;18.05;100.00;102076.41;5058744;28;20037;-72
2023/08/23 08:42:49;;;;;;;41.35;26.13;;;;;;;18.07;100.00;102083.31;5058910;28;20036;-72
2023/08/23 08:45:15;;;;;;;35.10;24.05;;;;;;;18.10;100.00;102090.25;5052717;28;20332;-73
2023/08/23 08:47:42;;;;;;;34.83;23.33;;;;;;;18.13;100.00;102103.34;5025738;28;20120;-73
2023/08/23 08:50:08;;;;;;;34.90;23.27;;;;;;;18.15;100.00;102088.22;5052789;28;20045;-73
2023/08/23 08:52:36;;;;;;;32.33;19.90;;;;;;;18.18;100.00;102086.25;5059826;28;20059;-73
2023/08/23 08:55:02;;;;;;;;;;;;;;;18.19;100.00;102082.69;5056221;28;20056;-73
2023/08/23 08:57:30;;;;;;;34.67;23.83;;;;;;;18.22;100.00;102085.16;5060226;28;19947;-73
2023/08/23 08:59:56;;;;;;;36.07;24.40;;;;;;;18.25;100.00;102086.78;5053053;28;20063;-73
2023/08/23 09:02:23;;;;;;;32.15;20.92;;;;;;;18.29;100.00;102087.50;5054746;28;20036;-75
2023/08/23 09:04:51;;;;;;;29.38;20.95;;;;;;;18.32;100.00;102093.50;5061182;28;20032;-73
2023/08/23 09:07:16;;;;;;;28.52;20.95;;;;;;;18.34;100.00;102081.00;5061635;28;20071;-73
2023/08/23 09:09:43;;;;;;;36.47;21.58;;;;;;;18.37;100.00;102080.84;5062701;28;20032;-73
2023/08/23 09:12:09;;;;;;;33.90;22.30;;;;;;;18.41;100.00;102085.03;5048864;28;20044;-73
2023/08/23 09:14:34;;;;;;;27.52;18.88;;;;;;;18.45;100.00;102088.38;5057898;28;20296;-73
2023/08/23 09:17:00;;;;;;;26.15;18.88;;;;;;;18.46;100.00;102079.47;5060225;28;21079;-73
2023/08/23 09:19:25;;;;;;;31.25;18.70;;;;;;;18.51;100.00;102087.19;5036467;28;20084;-73
2023/08/23 09:21:50;;;;;;;31.10;19.42;;;;;;;18.53;100.00;102087.97;5056758;28;20093;-73
2023/08/23 09:24:17;;;;;;;36.13;21.73;;;;;;;18.57;100.00;102086.84;5049168;28;20051;-73
2023/08/23 09:26:43;;;;;;;23.55;17.05;;;;;;;18.60;100.00;102092.84;5056334;28;20037;-73
2023/08/23 09:29:09;;;;;;;20.17;15.80;;;;;;;18.63;100.00;102091.84;5056754;28;20037;-73
2023/08/23 09:31:34;;;;;;;24.77;16.73;;;;;;;18.65;100.00;102084.63;5054215;28;20126;-73
2023/08/23 09:34:00;;;;;;;19.10;15.18;;;;;;;18.69;100.00;102087.97;5056759;28;20041;-73
2023/08/23 09:36:31;;;;;;;19.48;14.98;;;;;;;18.72;100.00;102086.00;5057118;28;20045;-73
2023/08/23 09:39:00;;;;;;;18.23;14.43;;;;;;;18.75;100.00;102091.13;5056891;28;20078;-73
2023/08/23 09:41:25;;;;;;;21.05;14.23;;;;;;;18.79;100.00;102079.44;5058487;28;20037;-73
2023/08/23 09:43:58;;;;;;;19.10;14.57;;;;;;;18.82;100.00;102083.72;5059343;28;20075;-73
2023/08/23 09:46:26;;;;;;;22.45;15.38;;;;;;;18.84;100.00;102075.69;5058262;28;20033;-73
2023/08/23 09:48:53;;;;;;;;;;;;;;;18.86;100.00;102081.75;5057286;28;20351;-73
2023/08/23 09:51:23;;;;;;;20.35;13.63;;;;;;;18.88;100.00;102078.09;5058415;28;19940;-73
2023/08/23 09:53:53;;;;;;;14.48;11.88;;;;;;;18.90;100.00;102072.66;5056320;28;20268;-73
2023/08/23 09:56:19;;;;;;;15.10;11.70;;;;;;;18.92;100.00;102076.13;5055247;28;20040;-73
2023/08/23 09:58:45;;;;;;;13.25;10.20;;;;;;;18.94;100.00;102071.59;5058490;28;20264;-73
2023/08/23 10:01:11;;;;;;;11.27;10.02;;;;;;;18.96;100.00;102070.53;5057263;28;20075;-73
2023/08/23 10:03:37;;;;;;;12.50;9.45;;;;;;;19.01;100.00;102064.09;5055144;28;20324;-73
2023/08/23 10:06:03;;;;;;;16.33;10.30;;;;;;;19.04;100.00;102069.25;5055665;28;20037;-73
2023/08/23 10:08:33;;;;;;;14.57;9.48;;;;;;;19.07;100.00;102075.25;5059127;28;20323;-73
2023/08/23 10:10:58;;;;;;;17.35;7.70;;;;;;;19.11;100.00;102065.31;5057630;28;20036;-73
2023/08/23 10:13:24;;;;;;;12.23;7.18;;;;;;;19.13;99.62;102064.25;5059698;28;20244;-73
2023/08/23 10:15:53;;;;;;;10.90;7.10;;;;;;;19.16;99.56;102058.78;5056288;28;20037;-73
2023/08/23 10:18:20;;;;;;;9.27;7.10;;;;;;;19.19;99.13;102065.69;5058121;28;20232;-73
2023/08/23 10:20:45;;;;;;;9.25;6.82;;;;;;;19.22;99.21;102057.56;5051918;28;20064;-73
2023/08/23 10:23:15;;;;;;;11.95;6.13;;;;;;;19.25;98.74;102062.72;5054529;28;20395;-73
2023/08/23 10:25:44;;;;;;;8.90;5.78;;;;;;;19.27;98.57;102066.13;5055549;28;20036;-73
2023/08/23 10:28:12;;;;;;;14.20;5.53;;;;;;;19.31;98.17;102064.16;5051662;28;20041;-73
2023/08/23 10:30:41;;;;;;;12.37;6.17;;;;;;;19.32;98.00;102053.44;5053942;28;20033;-73
2023/08/23 10:33:09;;;;;;;8.82;5.75;;;;;;;19.35;97.99;102049.75;5047006;28;20272;-73
2023/08/23 10:35:35;;;;;;;5.95;4.80;;;;;;;19.38;97.58;102042.44;5053536;28;20515;-73
2023/08/23 10:38:02;;;;;;;6.38;5.00;;;;;;;19.42;97.86;102044.94;5052535;28;20347;-73
2023/08/23 10:40:29;;;;;;;6.13;4.22;;;;;;;19.45;97.47;102042.09;5052493;28;20045;-73
2023/08/23 10:42:55;;;;;;;7.95;3.85;;;;;;;19.47;97.42;102048.19;5056503;28;20063;-73
2023/08/23 10:45:20;;;;;;;6.50;3.40;;;;;;;19.48;96.90;102045.44;5057313;28;20040;-73
2023/08/23 10:47:49;;;;;;;3.03;2.53;;;;;;;19.50;96.92;102045.31;5055017;28;20063;-73
2023/08/23 10:50:15;;;;;;;3.05;2.60;;;;;;;19.51;96.58;102041.72;5052364;28;20307;-73
2023/08/23 10:52:41;;;;;;;4.55;2.40;;;;;;;19.53;96.04;102039.84;5053811;28;20029;-73
2023/08/23 10:55:07;;;;;;;6.38;2.22;;;;;;;19.55;95.72;102048.56;5039950;28;20052;-73
2023/08/23 10:57:32;;;;;;;2.40;1.80;;;;;;;19.56;95.07;102050.28;5049219;28;20051;-73
2023/08/23 10:59:58;;;;;;;3.03;2.08;;;;;;;19.59;94.97;102058.06;5053788;28;20037;-73
2023/08/23 11:02:23;;;;;;;2.97;1.85;;;;;;;19.63;95.25;102048.09;5048411;28;20243;-73
2023/08/23 11:04:48;;;;;;;2.10;1.90;;;;;;;19.65;94.79;102055.03;5053844;28;20032;-73
2023/08/23 11:07:15;;;;;;;3.08;2.05;;;;;;;19.67;94.46;102054.97;5053927;28;20033;-73
2023/08/23 11:09:41;;;;;;;3.22;1.70;;;;;;;19.68;93.96;102051.34;5056159;28;20033;-73